Time;durP1;ratioP1;P1;durP2;ratioP2;P2;SDS_P1;SDS_P2;PMS_P1;PMS_P2;Temp;Humidity;BMP_temperature;BMP_pressure;BME280_temperature;BME280_humidity;BME280_pressure;Samples;Min_cycle;Max_cycle;Signal;HPM_P1;HPM_P2
2024/04/12 00:00:32;;;;;;;31.92;17.23;;;;;;;-146.25;100.00;52406.72;2197113;26;20346;-63
2024/04/12 00:01:35;;;;;;;32.83;18.33;;;;;;;-146.25;100.00;52384.41;2196998;26;28677;-62
2024/04/12 00:02:37;;;;;;;39.70;19.17;;;;;;;-146.25;100.00;52410.78;2196512;26;32516;-63
2024/04/12 00:03:41;;;;;;;33.55;19.42;;;;;;;-146.25;100.00;52406.72;2196614;26;34377;-62
2024/04/12 00:04:45;;;;;;;35.72;19.58;;;;;;;-146.25;100.00;52388.47;2196454;26;36667;-62
2024/04/12 00:05:47;;;;;;;37.40;19.38;;;;;;;-146.25;100.00;52402.66;2196593;26;36160;-62
2024/04/12 00:07:03;;;;;;;39.60;19.63;;;;;;;-146.25;100.00;52402.66;2196428;26;35688;-62
2024/04/12 00:08:08;;;;;;;34.05;19.02;;;;;;;-146.25;100.00;52376.31;2196536;26;20009;-63
2024/04/12 00:09:18;;;;;;;38.00;20.67;;;;;;;-146.25;100.00;52380.38;2198957;26;35653;-63
2024/04/12 00:10:23;;;;;;;34.85;18.70;;;;;;;-146.25;100.00;52386.44;2196652;26;34979;-62
2024/04/12 00:11:25;;;;;;;33.65;19.08;;;;;;;-146.25;100.00;52392.53;2196308;26;34863;-62
2024/04/12 00:12:27;;;;;;;35.85;19.58;;;;;;;-146.25;100.00;52408.75;2196702;26;36613;-62
2024/04/12 00:13:32;;;;;;;39.65;20.73;;;;;;;-146.25;100.00;52364.13;2196691;26;20006;-61
2024/04/12 00:14:34;;;;;;;38.05;19.92;;;;;;;-146.25;100.00;52396.59;2196779;26;35429;-62
2024/04/12 00:15:36;;;;;;;39.47;20.27;;;;;;;-146.25;100.00;52386.44;2184088;26;20010;-63
2024/04/12 00:16:43;;;;;;;35.35;19.45;;;;;;;-146.25;100.00;52392.53;2182459;27;39020;-63
2024/04/12 00:17:45;;;;;;;38.65;20.38;;;;;;;-146.25;100.00;52420.91;2181617;27;33516;-63
2024/04/12 00:18:47;;;;;;;37.80;20.00;;;;;;;-146.25;100.00;52386.44;2182133;27;34160;-63
2024/04/12 00:19:52;;;;;;;37.45;19.23;;;;;;;-146.25;100.00;52414.84;2181411;27;33737;-63
2024/04/12 00:21:01;;;;;;;37.97;19.25;;;;;;;-146.25;100.00;52384.41;2183210;27;20011;-63
2024/04/12 00:22:03;;;;;;;41.50;20.55;;;;;;;-146.25;100.00;52384.41;2182214;27;33572;-62
2024/04/12 00:23:06;;;;;;;39.45;19.95;;;;;;;-146.25;100.00;52376.31;2182533;27;33735;-62
2024/04/12 00:24:11;;;;;;;38.80;20.00;;;;;;;-146.25;100.00;52364.13;2182888;27;20010;-62
2024/04/12 00:25:14;;;;;;;36.35;19.45;;;;;;;-146.25;100.00;52400.63;2182906;27;20616;-63
2024/04/12 00:26:16;;;;;;;40.60;20.45;;;;;;;-146.25;100.00;52396.59;2182282;27;29967;-62
2024/04/12 00:27:18;;;;;;;40.55;20.42;;;;;;;-146.25;100.00;52382.38;2182554;27;35320;-63
2024/04/12 00:28:22;;;;;;;43.63;22.15;;;;;;;-146.25;100.00;52372.25;2182215;27;33614;-62
2024/04/12 00:29:30;;;;;;;40.05;20.23;;;;;;;-146.25;100.00;52374.28;2182311;27;36738;-62
2024/04/12 00:30:41;;;;;;;42.30;21.08;;;;;;;-146.25;100.00;52386.44;2181967;27;32993;-62
2024/04/12 00:31:46;;;;;;;41.20;21.48;;;;;;;-146.25;100.00;52368.19;2182379;27;33499;-61
2024/04/12 00:32:56;;;;;;;39.97;20.35;;;;;;;-146.25;100.00;52429.03;2182214;27;36898;-62
2024/04/12 00:34:04;;;;;;;42.55;21.88;;;;;;;-146.25;100.00;52408.75;2181094;27;37933;-62
2024/04/12 00:35:11;;;;;;;41.05;21.15;;;;;;;-146.25;100.00;52380.38;2181787;27;34946;-62
2024/04/12 00:36:13;;;;;;;41.92;21.63;;;;;;;-146.25;100.00;52390.50;2182149;27;34003;-62
2024/04/12 00:37:16;;;;;;;41.60;21.30;;;;;;;-146.25;100.00;52354.00;2182593;27;36025;-63
2024/04/12 00:38:23;;;;;;;41.80;20.90;;;;;;;-146.25;100.00;52420.91;2182086;27;33805;-62
2024/04/12 00:39:35;;;;;;;41.13;21.35;;;;;;;-146.25;100.00;52400.63;2182362;27;38752;-62
2024/04/12 00:40:40;;;;;;;44.97;22.27;;;;;;;-146.25;100.00;52372.25;2182072;27;33146;-62
2024/04/12 00:41:42;;;;;;;43.15;21.88;;;;;;;-146.25;100.00;52368.19;2182523;27;38459;-62
2024/04/12 00:42:44;;;;;;;39.38;20.65;;;;;;;-146.25;100.00;52416.84;2181687;27;30562;-62
2024/04/12 00:43:51;;;;;;;47.03;23.48;;;;;;;-146.25;100.00;52372.25;2181704;27;35250;-62
2024/04/12 00:44:54;;;;;;;41.75;21.42;;;;;;;-146.25;100.00;52408.75;2182011;27;32518;-62
2024/04/12 00:45:56;;;;;;;45.13;23.15;;;;;;;-146.25;100.00;52366.16;2196167;27;20135;-61
2024/04/12 00:47:04;;;;;;;42.00;22.13;;;;;;;-146.25;100.00;52366.16;2196708;26;20022;-62
2024/04/12 00:48:07;;;;;;;45.92;23.02;;;;;;;-146.25;100.00;52362.13;2197416;26;20902;-61
2024/04/12 00:49:10;;;;;;;44.15;23.05;;;;;;;-146.25;100.00;52416.84;2196224;26;34696;-62
2024/04/12 00:50:15;;;;;;;44.05;23.13;;;;;;;-146.25;100.00;52400.63;2196675;26;35328;-62
2024/04/12 00:51:24;;;;;;;46.78;22.30;;;;;;;-146.25;100.00;52414.84;2196410;26;30860;-62
2024/04/12 00:52:33;;;;;;;46.03;23.58;;;;;;;-146.25;100.00;52412.81;2196503;26;35524;-63
2024/04/12 00:53:40;;;;;;;45.88;23.30;;;;;;;-146.25;100.00;52384.41;2196167;27;20012;-63
2024/04/12 00:54:44;;;;;;;43.25;23.35;;;;;;;-146.25;100.00;52374.28;2199547;26;20021;-62
2024/04/12 00:55:47;;;;;;;48.55;23.05;;;;;;;-146.25;100.00;52364.13;2206176;26;38740;-62
2024/04/12 00:56:50;;;;;;;43.40;22.55;;;;;;;-146.25;100.00;52416.84;2196482;26;31790;-62
2024/04/12 00:57:52;;;;;;;48.53;23.67;;;;;;;-146.25;100.00;52394.56;2195640;27;32916;-63
2024/04/12 00:58:56;;;;;;;46.30;23.30;;;;;;;-146.25;100.00;52388.47;2195454;27;37041;-63
2024/04/12 00:59:58;;;;;;;48.38;23.05;;;;;;;-146.25;100.00;52368.19;2196900;26;20020;-62
2024/04/12 01:01:15;;;;;;;47.50;23.13;;;;;;;-146.25;100.00;52406.72;2195827;26;37239;-63
2024/04/12 01:02:21;;;;;;;46.17;23.35;;;;;;;-146.25;100.00;52388.47;2196858;26;31242;-63
2024/04/12 01:03:24;;;;;;;45.45;22.67;;;;;;;-146.25;100.00;52388.47;2195201;26;37621;-62
2024/04/12 01:04:27;;;;;;;51.22;23.58;;;;;;;-146.25;100.00;52418.88;2195526;27;36748;-63
2024/04/12 01:05:29;;;;;;;47.35;22.95;;;;;;;-146.25;100.00;52384.41;2196252;27;36909;-63
2024/04/12 01:06:34;;;;;;;47.42;23.75;;;;;;;-146.25;100.00;52380.38;2196431;26;36712;-63
2024/04/12 01:07:48;;;;;;;50.30;23.80;;;;;;;-146.25;100.00;52386.44;2196103;26;36900;-62
2024/04/12 01:08:54;;;;;;;47.17;23.35;;;;;;;-146.25;100.00;52390.50;2196377;26;38287;-63
2024/04/12 01:09:57;;;;;;;47.67;22.52;;;;;;;-146.25;100.00;52400.63;2196002;26;35109;-62
2024/04/12 01:10:59;;;;;;;48.10;24.13;;;;;;;-146.25;100.00;52364.13;2196572;27;32938;-62
2024/04/12 01:12:06;;;;;;;46.55;22.80;;;;;;;-146.25;100.00;52388.47;2196678;26;20010;-62
2024/04/12 01:13:11;;;;;;;48.38;24.42;;;;;;;-146.25;100.00;52351.97;2196278;27;20002;-62
2024/04/12 01:14:13;;;;;;;48.28;23.77;;;;;;;-146.25;100.00;52420.91;2195330;27;33128;-62
2024/04/12 01:15:19;;;;;;;44.60;21.80;;;;;;;-146.25;100.00;52396.59;2195765;26;34127;-63
2024/04/12 01:16:22;;;;;;;47.05;23.20;;;;;;;-146.25;100.00;52329.66;2196047;26;37524;-62
2024/04/12 01:17:24;;;;;;;48.72;23.42;;;;;;;-146.25;100.00;52433.06;2197032;26;20006;-63
2024/04/12 01:18:28;;;;;;;52.88;24.42;;;;;;;-146.25;100.00;52382.38;2196094;26;35939;-62
2024/04/12 01:19:34;;;;;;;48.58;23.83;;;;;;;-146.25;100.00;52380.38;2197127;26;20006;-62
2024/04/12 01:20:36;;;;;;;53.50;24.25;;;;;;;-146.25;100.00;52412.81;2196818;26;20025;-62
2024/04/12 01:21:38;;;;;;;53.20;23.25;;;;;;;-146.25;100.00;52412.81;2196172;26;37645;-63
2024/04/12 01:22:44;;;;;;;49.95;23.92;;;;;;;-146.25;100.00;52376.31;2196363;26;28299;-62
2024/04/12 01:23:53;;;;;;;49.72;23.75;;;;;;;-146.25;100.00;52416.84;2196271;26;32419;-62
2024/04/12 01:24:57;;;;;;;52.85;23.55;;;;;;;-146.25;100.00;52396.59;2196158;26;34787;-62
2024/04/12 01:25:59;;;;;;;51.00;23.88;;;;;;;-146.25;100.00;52394.56;2196138;26;31962;-62
2024/04/12 01:27:06;;;;;;;47.42;22.58;;;;;;;-146.25;100.00;52382.38;2196591;26;26854;-63
2024/04/12 01:28:09;;;;;;;51.63;23.58;;;;;;;-146.25;100.00;52396.59;2196382;26;38608;-62
2024/04/12 01:29:13;;;;;;;49.67;23.35;;;;;;;-146.25;100.00;52408.75;2195907;26;37766;-62
2024/04/12 01:30:20;;;;;;;49.13;22.88;;;;;;;-146.25;100.00;52416.84;2195765;26;32291;-62
2024/04/12 01:31:27;;;;;;;47.97;23.38;;;;;;;-146.25;100.00;52427.00;2196034;26;36009;-62
2024/04/12 01:32:30;;;;;;;52.72;24.17;;;;;;;-146.25;100.00;52392.53;2195934;26;36084;-62
2024/04/12 01:33:36;;;;;;;54.58;24.50;;;;;;;-146.25;100.00;52390.50;2196317;26;33552;-63
2024/04/12 01:34:39;;;;;;;53.65;24.67;;;;;;;-146.25;100.00;52394.56;2195786;26;34579;-62
2024/04/12 01:35:42;;;;;;;54.67;23.73;;;;;;;-146.25;100.00;52406.72;2196380;26;32878;-62
2024/04/12 01:36:48;;;;;;;53.30;23.48;;;;;;;-146.25;100.00;52424.97;2194975;27;36516;-63
2024/04/12 01:37:57;;;;;;;44.97;22.20;;;;;;;-146.25;100.00;52374.28;2195552;27;38899;-63
2024/04/12 01:39:00;;;;;;;50.30;24.00;;;;;;;-146.25;100.00;52404.69;2196628;27;20006;-62
2024/04/12 01:40:03;;;;;;;52.78;24.42;;;;;;;-146.25;100.00;52392.53;2196089;26;37187;-63
2024/04/12 01:41:05;;;;;;;52.78;24.42;;;;;;;-146.25;100.00;52420.91;2195894;26;33721;-62
2024/04/12 01:42:07;;;;;;;55.00;25.73;;;;;;;-146.25;100.00;52372.25;2196515;26;28420;-63
2024/04/12 01:43:09;;;;;;;52.15;25.00;;;;;;;-146.25;100.00;52398.59;2209364;26;33113;-62
2024/04/12 01:44:12;;;;;;;52.58;24.98;;;;;;;-146.25;100.00;52424.97;2209289;26;34034;-63
2024/04/12 01:45:17;;;;;;;51.83;24.20;;;;;;;-146.25;100.00;52396.59;2195269;26;36392;-61
2024/04/12 01:46:27;;;;;;;51.55;24.80;;;;;;;-146.25;100.00;52380.38;2197101;26;20135;-62
2024/04/12 01:47:37;;;;;;;55.47;24.40;;;;;;;-146.25;100.00;52398.59;2194881;27;36716;-62
2024/04/12 01:48:43;;;;;;;59.67;26.50;;;;;;;-146.25;100.00;52396.59;2196344;27;20911;-63
2024/04/12 01:49:46;;;;;;;50.97;24.08;;;;;;;-146.25;100.00;52402.66;2196048;26;35968;-62
2024/04/12 01:50:51;;;;;;;54.25;25.27;;;;;;;-146.25;100.00;52441.19;2196222;26;32840;-62
2024/04/12 01:51:55;;;;;;;52.50;25.05;;;;;;;-146.25;100.00;52437.13;2196396;26;33488;-62
2024/04/12 01:52:59;;;;;;;52.00;24.75;;;;;;;-146.25;100.00;52441.19;2196182;26;37064;-65
2024/04/12 01:54:17;;;;;;;54.60;24.75;;;;;;;-146.25;100.00;52396.59;2196622;27;20009;-63
2024/04/12 01:55:21;;;;;;;54.40;25.80;;;;;;;-146.25;100.00;52416.84;2195854;26;35305;-62
2024/04/12 01:56:24;;;;;;;52.58;26.08;;;;;;;-146.25;100.00;52422.94;2195441;27;30186;-62
2024/04/12 01:57:28;;;;;;;54.95;25.95;;;;;;;-146.25;100.00;52394.56;2195390;27;24649;-61
2024/04/12 01:58:31;;;;;;;51.78;25.95;;;;;;;-146.25;100.00;52358.06;2196749;26;20010;-63
2024/04/12 01:59:33;;;;;;;59.80;28.13;;;;;;;-146.25;100.00;52404.69;2195576;26;33455;-63
2024/04/12 02:00:35;;;;;;;53.70;25.80;;;;;;;-146.25;100.00;52429.03;2188397;26;30949;-63
2024/04/12 02:01:37;;;;;;;58.22;28.73;;;;;;;-146.25;100.00;52378.34;2181373;27;38199;-62
2024/04/12 02:02:42;;;;;;;55.60;26.58;;;;;;;-146.25;100.00;52420.91;2182715;27;20011;-63
2024/04/12 02:03:44;;;;;;;54.25;27.52;;;;;;;-146.25;100.00;52412.81;2181524;27;34132;-62
2024/04/12 02:04:56;;;;;;;59.08;28.52;;;;;;;-146.25;100.00;52402.66;2181614;27;37217;-61
2024/04/12 02:06:04;;;;;;;60.80;28.77;;;;;;;-146.25;100.00;52433.06;2181718;27;30866;-62
2024/04/12 02:07:11;;;;;;;58.65;28.55;;;;;;;-146.25;100.00;52404.69;2182541;27;29095;-63
2024/04/12 02:08:23;;;;;;;60.03;29.38;;;;;;;-146.25;100.00;52412.81;2183186;27;20018;-62
2024/04/12 02:09:28;;;;;;;56.13;28.30;;;;;;;-146.25;100.00;52384.41;2183358;27;20010;-62
2024/04/12 02:10:34;;;;;;;56.53;28.83;;;;;;;-146.25;100.00;52412.81;2182521;27;35696;-63
2024/04/12 02:11:38;;;;;;;58.35;28.90;;;;;;;-146.25;100.00;52388.47;2183136;27;30180;-63
2024/04/12 02:12:42;;;;;;;57.92;29.88;;;;;;;-146.25;100.00;52406.72;2182736;27;34455;-62
2024/04/12 02:13:45;;;;;;;53.85;28.75;;;;;;;-146.25;100.00;52410.78;2183780;27;20546;-63
2024/04/12 02:14:50;;;;;;;68.75;30.65;;;;;;;-146.25;100.00;52406.72;2183752;27;20011;-62
2024/04/12 02:15:53;;;;;;;58.83;30.15;;;;;;;-146.25;100.00;52396.59;2194584;27;34148;-62
2024/04/12 02:16:58;;;;;;;51.50;28.05;;;;;;;-146.25;100.00;52390.50;2197089;26;34223;-62
2024/04/12 02:18:02;;;;;;;58.20;30.27;;;;;;;-146.25;100.00;52410.78;2197138;26;34920;-62
2024/04/12 02:19:15;;;;;;;58.90;31.10;;;;;;;-146.25;100.00;52412.81;2196930;26;37472;-63
2024/04/12 02:20:19;;;;;;;57.20;30.17;;;;;;;-146.25;100.00;52420.91;2196901;26;31342;-62
2024/04/12 02:21:21;;;;;;;57.67;30.20;;;;;;;-146.25;100.00;52408.75;2197863;26;33438;-62
2024/04/12 02:22:25;;;;;;;61.42;31.60;;;;;;;-146.25;100.00;52449.31;2196954;26;31325;-62
2024/04/12 02:23:27;;;;;;;55.65;29.73;;;;;;;-146.25;100.00;52412.81;2197369;26;27762;-63
2024/04/12 02:24:29;;;;;;;61.38;33.05;;;;;;;-146.25;100.00;52400.63;2196674;26;36624;-63
2024/04/12 02:25:38;;;;;;;62.88;31.98;;;;;;;-146.25;100.00;52422.94;2197266;26;33824;-63
2024/04/12 02:26:42;;;;;;;62.53;32.53;;;;;;;-146.25;100.00;52416.84;2196704;26;38013;-63
2024/04/12 02:27:46;;;;;;;60.58;32.63;;;;;;;-146.25;100.00;52424.97;2197759;26;20010;-62
2024/04/12 02:28:48;;;;;;;62.85;32.85;;;;;;;-146.25;100.00;52406.72;2196656;26;37486;-63
2024/04/12 02:29:51;;;;;;;64.63;33.55;;;;;;;-146.25;100.00;52390.50;2196890;26;36797;-63
2024/04/12 02:30:57;;;;;;;64.57;35.08;;;;;;;-146.25;100.00;52406.72;2196334;26;32910;-63
2024/04/12 02:32:00;;;;;;;60.53;33.47;;;;;;;-146.25;100.00;52380.38;2197110;26;36615;-62
2024/04/12 02:33:05;;;;;;;62.05;34.42;;;;;;;-146.25;100.00;52427.00;2196956;26;30505;-63
2024/04/12 02:34:09;;;;;;;64.68;35.33;;;;;;;-146.25;100.00;52400.63;2210655;26;36474;-63
2024/04/12 02:35:11;;;;;;;64.35;36.42;;;;;;;-146.25;100.00;52376.31;2210269;26;20153;-62
2024/04/12 02:36:14;;;;;;;66.25;36.55;;;;;;;-146.25;100.00;52388.47;2197173;26;33251;-62
2024/04/12 02:37:16;;;;;;;64.15;35.22;;;;;;;-146.25;100.00;52370.22;2197036;26;35148;-63
2024/04/12 02:38:20;;;;;;;63.55;37.08;;;;;;;-146.25;100.00;52416.84;2197202;26;33805;-62
2024/04/12 02:39:23;;;;;;;65.13;36.67;;;;;;;-146.25;100.00;52429.03;2196467;26;37178;-62
2024/04/12 02:40:25;;;;;;;66.60;37.17;;;;;;;-146.25;100.00;52420.91;2197837;26;21155;-63
2024/04/12 02:41:37;;;;;;;68.10;37.75;;;;;;;-146.25;100.00;52422.94;2196803;26;33912;-63
2024/04/12 02:42:39;;;;;;;66.55;36.42;;;;;;;-146.25;100.00;52396.59;2197616;26;20010;-62
2024/04/12 02:43:42;;;;;;;64.35;36.40;;;;;;;-146.25;100.00;52402.66;2196606;26;35475;-62
2024/04/12 02:44:47;;;;;;;64.05;36.88;;;;;;;-146.25;100.00;52402.66;2197034;27;20136;-63
2024/04/12 02:45:58;;;;;;;63.58;37.42;;;;;;;-146.25;100.00;52431.06;2195490;26;33115;-62
2024/04/12 02:47:04;;;;;;;60.75;34.78;;;;;;;-146.25;100.00;52437.13;2196246;27;32857;-62
2024/04/12 02:48:06;;;;;;;66.28;37.45;;;;;;;-146.25;100.00;52380.38;2198060;26;28625;-63
2024/04/12 02:49:10;;;;;;;66.20;37.33;;;;;;;-146.25;100.00;52412.81;2196881;26;39586;-62
2024/04/12 02:50:15;;;;;;;61.28;36.00;;;;;;;-146.25;100.00;52416.84;2196982;26;32354;-62
2024/04/12 02:51:18;;;;;;;58.53;36.00;;;;;;;-146.25;100.00;52416.84;2192633;26;37401;-62
2024/04/12 02:52:20;;;;;;;63.78;36.60;;;;;;;-146.25;100.00;52392.53;2181253;27;20875;-63
2024/04/12 02:53:24;;;;;;;61.85;37.28;;;;;;;-146.25;100.00;52457.41;2183919;27;35235;-62
2024/04/12 02:54:27;;;;;;;63.58;36.90;;;;;;;-146.25;100.00;52437.13;2182067;27;39294;-62
2024/04/12 02:55:30;;;;;;;62.40;36.78;;;;;;;-146.25;100.00;52455.38;2182935;27;20994;-63
2024/04/12 02:56:33;;;;;;;60.53;37.20;;;;;;;-146.25;100.00;52429.03;2182555;27;37782;-61
2024/04/12 02:57:37;;;;;;;60.72;35.58;;;;;;;-146.25;100.00;52420.91;2188834;27;35563;-62
2024/04/12 02:58:45;;;;;;;60.28;36.90;;;;;;;-146.25;100.00;52410.78;2196734;27;35320;-62
2024/04/12 02:59:52;;;;;;;65.25;35.95;;;;;;;-146.25;100.00;52412.81;2196592;27;35884;-62
2024/04/12 03:01:00;;;;;;;62.55;36.67;;;;;;;-146.25;100.00;52412.81;2197916;26;21134;-62
2024/04/12 03:02:03;;;;;;;63.15;36.53;;;;;;;-146.25;100.00;52414.84;2196732;27;34491;-62
2024/04/12 03:03:06;;;;;;;63.30;38.22;;;;;;;-146.25;100.00;52461.47;2197591;26;20978;-62
2024/04/12 03:04:10;;;;;;;58.28;36.20;;;;;;;-146.25;100.00;52441.19;2195807;27;33582;-62
2024/04/12 03:05:12;;;;;;;55.92;36.38;;;;;;;-146.25;100.00;52422.94;2195895;27;39717;-62
2024/04/12 03:06:23;;;;;;;60.42;35.72;;;;;;;-146.25;100.00;52429.03;2197364;27;21628;-62
2024/04/12 03:07:26;;;;;;;59.50;36.92;;;;;;;-146.25;100.00;52390.50;2196939;27;38514;-62
2024/04/12 03:08:32;;;;;;;59.80;37.22;;;;;;;-146.25;100.00;52408.75;2196514;26;35812;-62
2024/04/12 03:09:40;;;;;;;57.15;35.95;;;;;;;-146.25;100.00;52424.97;2193379;26;32366;-62
2024/04/12 03:10:45;;;;;;;58.63;37.28;;;;;;;-146.25;100.00;52447.28;2182434;27;34932;-62
2024/04/12 03:11:50;;;;;;;58.63;36.35;;;;;;;-146.25;100.00;52406.72;2183672;27;19999;-62
2024/04/12 03:12:52;;;;;;;66.38;37.70;;;;;;;-146.25;100.00;52408.75;2182503;27;37693;-61
2024/04/12 03:13:58;;;;;;;60.15;36.85;;;;;;;-146.25;100.00;52400.63;2182868;27;34438;-62
2024/04/12 03:15:04;;;;;;;59.20;36.83;;;;;;;-146.25;100.00;52412.81;2182286;27;33827;-62
2024/04/12 03:16:13;;;;;;;58.15;37.13;;;;;;;-146.25;100.00;52386.44;2168511;27;36952;-62
2024/04/12 03:17:17;;;;;;;56.90;36.15;;;;;;;-146.25;100.00;52410.78;2172406;27;35619;-62
2024/04/12 03:18:19;;;;;;;53.75;37.03;;;;;;;-146.25;100.00;52412.81;2182246;27;37285;-62
2024/04/12 03:19:21;;;;;;;59.17;36.95;;;;;;;-146.25;100.00;52424.97;2181809;27;33890;-62
2024/04/12 03:20:23;;;;;;;55.95;35.97;;;;;;;-146.25;100.00;52453.34;2182681;27;34483;-62
2024/04/12 03:21:26;;;;;;;62.85;36.78;;;;;;;-146.25;100.00;52473.63;2182779;27;31408;-62
2024/04/12 03:22:28;;;;;;;54.33;35.42;;;;;;;-146.25;100.00;52414.84;2181883;27;34376;-62
2024/04/12 03:23:31;;;;;;;54.47;35.72;;;;;;;-146.25;100.00;52376.31;2182198;27;31959;-62
2024/04/12 03:24:33;;;;;;;50.90;35.35;;;;;;;-146.25;100.00;52418.88;2182541;27;34307;-62
2024/04/12 03:25:42;;;;;;;53.90;37.42;;;;;;;-146.25;100.00;52418.88;2181998;27;37275;-62
2024/04/12 03:26:44;;;;;;;54.42;35.17;;;;;;;-146.25;100.00;52396.59;2182463;27;20015;-62
2024/04/12 03:27:51;;;;;;;52.63;34.58;;;;;;;-146.25;100.00;52416.84;2182571;27;20044;-62
2024/04/12 03:28:58;;;;;;;54.60;34.50;;;;;;;-146.25;100.00;52400.63;2183246;27;20132;-62
2024/04/12 03:30:00;;;;;;;54.53;35.28;;;;;;;-146.25;100.00;52445.25;2182771;27;26225;-62
2024/04/12 03:31:07;;;;;;;52.53;34.05;;;;;;;-146.25;100.00;52404.69;2182183;27;33866;-62
2024/04/12 03:32:12;;;;;;;49.55;33.65;;;;;;;-146.25;100.00;52410.78;2183375;27;20003;-62
2024/04/12 03:33:15;;;;;;;50.63;34.10;;;;;;;-146.25;100.00;52408.75;2182258;27;39332;-62
2024/04/12 03:34:18;;;;;;;47.80;33.20;;;;;;;-146.25;100.00;52402.66;2182843;27;31450;-62
2024/04/12 03:35:25;;;;;;;49.55;33.75;;;;;;;-146.25;100.00;52433.06;2182074;27;36943;-62
2024/04/12 03:36:53;;;;;;;52.97;33.42;;;;;;;-146.25;100.00;52414.84;2183498;27;20002;-62
2024/04/12 03:40:24;;;;;;;48.45;33.15;;;;;;;-146.25;100.00;52416.84;2183414;27;20060;-62
2024/04/12 03:41:26;;;;;;;49.78;31.75;;;;;;;-146.25;100.00;52429.03;2182868;27;31191;-61
2024/04/12 03:42:30;;;;;;;47.15;32.28;;;;;;;-146.25;100.00;52412.81;2182616;27;35615;-62
2024/04/12 03:43:34;;;;;;;51.78;33.65;;;;;;;-146.25;100.00;52396.59;2182509;27;32732;-62
2024/04/12 03:44:37;;;;;;;46.60;32.25;;;;;;;-146.25;100.00;52429.03;2182824;27;29426;-62
2024/04/12 03:45:41;;;;;;;49.45;32.50;;;;;;;-146.25;100.00;52386.44;2190910;27;36026;-61
2024/04/12 03:46:51;;;;;;;48.47;31.60;;;;;;;-146.25;100.00;52380.38;2197370;26;34518;-62
2024/04/12 03:47:54;;;;;;;46.55;32.10;;;;;;;-146.25;100.00;52433.06;2196650;26;33924;-62
2024/04/12 03:49:01;;;;;;;46.92;31.58;;;;;;;-146.25;100.00;52392.53;2196906;26;33870;-62
2024/04/12 03:50:12;;;;;;;46.78;31.77;;;;;;;-146.25;100.00;52410.78;2196246;26;38151;-62
2024/04/12 03:51:14;;;;;;;49.88;31.85;;;;;;;-146.25;100.00;52422.94;2197032;27;33158;-62
2024/04/12 03:52:19;;;;;;;47.33;31.27;;;;;;;-146.25;100.00;52418.88;2196478;26;34941;-62
2024/04/12 03:53:28;;;;;;;50.78;32.53;;;;;;;-146.25;100.00;52427.00;2197598;26;20009;-62
2024/04/12 03:54:31;;;;;;;45.92;31.23;;;;;;;-146.25;100.00;52422.94;2196481;26;34798;-63
2024/04/12 03:55:32;;;;;;;48.58;31.20;;;;;;;-146.25;100.00;52398.59;2196692;26;34144;-62
2024/04/12 03:56:36;;;;;;;53.42;31.85;;;;;;;-146.25;100.00;52420.91;2196664;26;31184;-62
2024/04/12 03:57:44;;;;;;;50.22;31.98;;;;;;;-146.25;100.00;52424.97;2196611;26;36356;-62
2024/04/12 03:58:46;;;;;;;49.95;30.58;;;;;;;-146.25;100.00;52414.84;2197107;26;20427;-63
2024/04/12 03:59:57;;;;;;;48.58;30.70;;;;;;;-146.25;100.00;52414.84;2196837;26;33840;-62
2024/04/12 04:00:59;;;;;;;;;;;;;;;-146.25;100.00;52414.84;2196872;26;34782;-62
2024/04/12 04:02:07;;;;;;;45.42;29.70;;;;;;;-146.25;100.00;52431.06;2196832;27;35824;-62
2024/04/12 04:03:21;;;;;;;49.35;30.25;;;;;;;-146.25;100.00;52416.84;2195773;27;34455;-62
2024/04/12 04:04:37;;;;;;;48.15;30.70;;;;;;;-146.25;100.00;52394.56;2196006;27;34023;-61
2024/04/12 04:05:41;;;;;;;45.33;30.27;;;;;;;-146.25;100.00;52433.06;2196685;26;34348;-62
2024/04/12 04:06:52;;;;;;;47.65;30.05;;;;;;;-146.25;100.00;52412.81;2196365;26;34921;-62
2024/04/12 04:07:54;;;;;;;49.92;31.42;;;;;;;-146.25;100.00;52418.88;2196845;26;37681;-62
2024/04/12 04:08:56;;;;;;;45.35;30.60;;;;;;;-146.25;100.00;52396.59;2195696;26;36147;-62
2024/04/12 04:09:58;;;;;;;46.40;30.27;;;;;;;-146.25;100.00;52408.75;2196518;26;40224;-62
2024/04/12 04:11:02;;;;;;;53.60;31.30;;;;;;;-146.25;100.00;52422.94;2197582;26;20215;-62
2024/04/12 04:12:05;;;;;;;47.85;30.55;;;;;;;-146.25;100.00;52400.63;2196784;26;35721;-62
2024/04/12 04:13:07;;;;;;;52.05;30.58;;;;;;;-146.25;100.00;52418.88;2196369;26;33859;-62
2024/04/12 04:14:10;;;;;;;50.22;31.35;;;;;;;-146.25;100.00;52410.78;2197038;26;30927;-62
2024/04/12 04:15:11;;;;;;;47.20;30.00;;;;;;;-146.25;100.00;52420.91;2195920;26;37865;-62
2024/04/12 04:16:16;;;;;;;46.67;28.92;;;;;;;-146.25;100.00;52404.69;2196463;26;33438;-62
2024/04/12 04:17:29;;;;;;;47.60;29.67;;;;;;;-146.25;100.00;52412.81;2196416;26;34438;-62
2024/04/12 04:18:32;;;;;;;43.72;29.45;;;;;;;-146.25;100.00;52437.13;2196103;26;36607;-62
2024/04/12 04:19:34;;;;;;;46.20;29.60;;;;;;;-146.25;100.00;52398.59;2196733;26;20233;-62
2024/04/12 04:20:39;;;;;;;47.45;30.55;;;;;;;-146.25;100.00;52380.38;2197572;26;20032;-62
2024/04/12 04:21:45;;;;;;;44.75;28.23;;;;;;;-146.25;100.00;52424.97;2196409;26;32928;-62
2024/04/12 04:22:50;;;;;;;45.90;28.42;;;;;;;-146.25;100.00;52422.94;2196912;26;30660;-62
2024/04/12 04:23:52;;;;;;;47.78;28.52;;;;;;;-146.25;100.00;52433.06;2196435;26;33144;-62
2024/04/12 04:24:54;;;;;;;44.75;28.33;;;;;;;-146.25;100.00;52396.59;2196599;26;33372;-62
2024/04/12 04:25:56;;;;;;;48.70;28.80;;;;;;;-146.25;100.00;52424.97;2196284;26;34699;-62
2024/04/12 04:26:58;;;;;;;48.33;27.63;;;;;;;-146.25;100.00;52451.31;2196755;26;32945;-63
2024/04/12 04:28:03;;;;;;;46.40;28.27;;;;;;;-146.25;100.00;52382.38;2196361;27;36880;-62
2024/04/12 04:29:11;;;;;;;50.88;26.33;;;;;;;-146.25;100.00;52461.47;2196574;26;36200;-62
2024/04/12 04:30:17;;;;;;;40.67;25.83;;;;;;;-146.25;100.00;52420.91;2196374;26;33750;-62
2024/04/12 04:31:21;;;;;;;39.53;25.27;;;;;;;-146.25;100.00;52427.00;2196156;26;37021;-62
2024/04/12 04:32:26;;;;;;;43.03;26.10;;;;;;;-146.25;100.00;52404.69;2197342;26;19998;-62
2024/04/12 04:33:29;;;;;;;41.33;25.17;;;;;;;-146.25;100.00;52431.06;2196784;27;37879;-62
2024/04/12 04:34:34;;;;;;;40.88;25.75;;;;;;;-146.25;100.00;52433.06;2196444;26;35622;-63
2024/04/12 04:35:38;;;;;;;39.60;25.38;;;;;;;-146.25;100.00;52408.75;2196326;26;36257;-62
2024/04/12 04:36:41;;;;;;;39.22;25.65;;;;;;;-146.25;100.00;52439.16;2196782;26;37184;-62
2024/04/12 04:37:45;;;;;;;41.75;25.75;;;;;;;-146.25;100.00;52439.16;2196265;26;37952;-62
2024/04/12 04:38:49;;;;;;;37.47;24.67;;;;;;;-146.25;100.00;52400.63;2196754;26;31935;-62
2024/04/12 04:39:52;;;;;;;42.47;25.13;;;;;;;-146.25;100.00;52404.69;2196729;26;20005;-62
2024/04/12 04:40:58;;;;;;;38.88;24.77;;;;;;;-146.25;100.00;52408.75;2196668;26;33232;-62
2024/04/12 04:41:59;;;;;;;42.22;26.63;;;;;;;-146.25;100.00;52441.19;2196338;26;35840;-62
2024/04/12 04:43:07;;;;;;;42.40;26.10;;;;;;;-146.25;100.00;52439.16;2197354;26;20013;-61
2024/04/12 04:44:09;;;;;;;40.80;24.70;;;;;;;-146.25;100.00;52431.06;2196279;26;33457;-62
2024/04/12 04:45:17;;;;;;;40.75;25.48;;;;;;;-146.25;100.00;52424.97;2196410;26;32769;-62
2024/04/12 04:46:28;;;;;;;41.85;26.00;;;;;;;-146.25;100.00;52420.91;2195973;26;32130;-61
2024/04/12 04:47:33;;;;;;;41.33;25.58;;;;;;;-146.25;100.00;52400.63;2196737;26;34133;-62
2024/04/12 04:48:36;;;;;;;39.50;25.17;;;;;;;-146.25;100.00;52433.06;2196207;26;36551;-62
2024/04/12 04:49:38;;;;;;;41.03;25.33;;;;;;;-146.25;100.00;52445.25;2197362;26;20103;-62
2024/04/12 04:50:43;;;;;;;44.70;25.60;;;;;;;-146.25;100.00;52445.25;2196662;27;20971;-62